Time,TemperatureF,DewpointF,PressureIn,WindDirection,WindDirectionDegrees,WindSpeedMPH,WindSpeedGustMPH,Humidity,HourlyPrecipIn,Conditions,Clouds,dailyrainin,SoftwareType,DateUTC
2013-11-20 00:04:00,47.5,21.8,30.10,East,80,2.0,2.0,36,0.00,,,0.00,Wunderground v.1.15,2013-11-20 06:04:00,
2013-11-20 00:09:00,47.4,21.7,30.11,SE,134,2.0,2.0,36,0.00,,,0.00,Wunderground v.1.15,2013-11-20 06:09:00,
2013-11-20 00:14:00,47.4,22.4,30.11,ESE,111,1.0,2.0,37,0.00,,,0.00,Wunderground v.1.15,2013-11-20 06:14:00,
2013-11-20 00:19:00,47.3,21.7,30.11,ESE,117,1.0,6.0,36,0.00,,,0.00,Wunderground v.1.15,2013-11-20 06:19:00,
2013-11-20 00:24:00,47.3,21.7,30.10,SE,124,1.0,6.0,36,0.00,,,0.00,Wunderground v.1.15,2013-11-20 06:24:00,
2013-11-20 00:29:00,47.3,21.7,30.10,ENE,58,2.0,2.0,36,0.00,,,0.00,Wunderground v.1.15,2013-11-20 06:29:00,
2013-11-20 00:34:00,47.2,21.6,30.10,NNE,26,2.0,2.0,36,0.00,,,0.00,Wunderground v.1.15,2013-11-20 06:34:00,
2013-11-20 00:39:00,47.1,21.5,30.10,ESE,108,2.0,2.0,36,0.00,,,0.00,Wunderground v.1.15,2013-11-20 06:39:00,
2013-11-20 00:49:00,47.0,20.7,30.09,North,11,2.0,2.0,35,0.00,,,0.00,Wunderground v.1.15,2013-11-20 06:49:00,
2013-11-20 00:54:00,46.9,20.0,30.09,NE,50,1.0,3.0,34,0.00,,,0.00,Wunderground v.1.15,2013-11-20 06:54:00,
2013-11-20 00:59:00,46.8,19.9,30.09,North,350,2.0,2.0,34,0.00,,,0.00,Wunderground v.1.15,2013-11-20 06:59:00,
2013-11-20 01:04:00,46.8,19.9,30.09,NE,49,2.0,2.0,34,0.00,,,0.00,Wunderground v.1.15,2013-11-20 07:04:00,
2013-11-20 01:09:00,46.7,19.8,30.09,East,100,1.0,3.0,34,0.00,,,0.00,Wunderground v.1.15,2013-11-20 07:09:00,
2013-11-20 01:14:00,46.7,19.1,30.08,NE,55,2.0,3.0,33,0.00,,,0.00,Wunderground v.1.15,2013-11-20 07:14:00,
2013-11-20 01:19:00,46.6,19.0,30.09,NE,41,2.0,3.0,33,0.00,,,0.00,Wunderground v.1.15,2013-11-20 07:19:00,
2013-11-20 01:24:00,46.6,19.7,30.08,NE,50,2.0,3.0,34,0.00,,,0.00,Wunderground v.1.15,2013-11-20 07:24:00,
2013-11-20 01:29:00,46.6,19.0,30.08,East,83,1.0,2.0,33,0.00,,,0.00,Wunderground v.1.15,2013-11-20 07:29:00,
2013-11-20 01:34:00,46.6,19.0,30.08,ENE,67,1.0,2.0,33,0.00,,,0.00,Wunderground v.1.15,2013-11-20 07:34:00,
2013-11-20 01:39:00,46.6,19.0,30.08,East,97,2.0,2.0,33,0.00,,,0.00,Wunderground v.1.15,2013-11-20 07:39:00,
2013-11-20 01:49:00,46.5,18.9,30.08,NE,52,2.0,2.0,33,0.00,,,0.00,Wunderground v.1.15,2013-11-20 07:49:00,
2013-11-20 01:59:00,46.5,18.9,30.08,NE,46,1.0,2.0,33,0.00,,,0.00,Wunderground v.1.15,2013-11-20 07:59:00,
2013-11-20 02:09:00,46.6,19.0,30.09,East,93,2.0,2.0,33,0.00,,,0.00,Wunderground v.1.15,2013-11-20 08:09:00,
2013-11-20 02:19:00,46.5,19.6,30.09,ESE,103,2.0,3.0,34,0.00,,,0.00,Wunderground v.1.15,2013-11-20 08:19:00,
2013-11-20 02:29:00,46.4,19.5,30.08,North,359,2.0,3.0,34,0.00,,,0.00,Wunderground v.1.15,2013-11-20 08:29:00,
2013-11-20 02:34:00,46.3,20.1,30.08,East,86,3.0,3.0,35,0.00,,,0.00,Wunderground v.1.15,2013-11-20 08:34:00,
2013-11-20 02:44:00,46.2,20.0,30.08,East,100,2.0,5.0,35,0.00,,,0.00,Wunderground v.1.15,2013-11-20 08:44:00,
2013-11-20 02:49:00,46.1,19.9,30.08,NE,36,2.0,3.0,35,0.00,,,0.00,Wunderground v.1.15,2013-11-20 08:49:00,
2013-11-20 02:59:00,46.0,20.5,30.08,SE,132,2.0,2.0,36,0.00,,,0.00,Wunderground v.1.15,2013-11-20 08:59:00,
2013-11-20 03:09:00,46.0,20.5,30.07,SE,135,2.0,5.0,36,0.00,,,0.00,Wunderground v.1.15,2013-11-20 09:09:00,
2013-11-20 03:19:00,46.0,20.5,30.07,NE,42,3.0,3.0,36,0.00,,,0.00,Wunderground v.1.15,2013-11-20 09:19:00,
2013-11-20 03:29:00,45.9,20.4,30.08,NNE,23,3.0,5.0,36,0.00,,,0.00,Wunderground v.1.15,2013-11-20 09:29:00,
2013-11-20 03:34:00,45.8,21.0,30.08,SE,142,2.0,5.0,37,0.00,,,0.00,Wunderground v.1.15,2013-11-20 09:34:00,
2013-11-20 03:39:00,45.8,20.3,30.08,East,100,2.0,7.0,36,0.00,,,0.00,Wunderground v.1.15,2013-11-20 09:39:00,
2013-11-20 03:49:00,45.7,20.9,30.06,SSE,149,4.0,4.0,37,0.00,,,0.00,Wunderground v.1.15,2013-11-20 09:49:00,
2013-11-20 03:59:00,45.4,21.9,30.07,NNW,332,3.0,3.0,39,0.00,,,0.00,Wunderground v.1.15,2013-11-20 09:59:00,
2013-11-20 04:04:00,45.3,22.4,30.07,NNE,18,3.0,3.0,40,0.00,,,0.00,Wunderground v.1.15,2013-11-20 10:04:00,
2013-11-20 04:14:00,44.9,23.2,30.06,NE,50,3.0,8.0,42,0.00,,,0.00,Wunderground v.1.15,2013-11-20 10:14:00,
2013-11-20 04:19:00,44.6,23.5,30.06,East,95,5.0,5.0,43,0.00,,,0.00,Wunderground v.1.15,2013-11-20 10:19:00,
2013-11-20 04:29:00,44.0,26.5,30.06,NNE,31,3.0,3.0,50,0.00,,,0.00,Wunderground v.1.15,2013-11-20 10:29:00,
2013-11-20 04:39:00,43.5,26.1,30.08,ESE,114,2.0,3.0,50,0.00,,,0.00,Wunderground v.1.15,2013-11-20 10:39:00,
2013-11-20 04:44:00,43.3,25.9,30.07,SE,128,2.0,3.0,50,0.00,,,0.00,Wunderground v.1.15,2013-11-20 10:44:00,
2013-11-20 04:54:00,42.9,27.4,30.07,NE,47,3.0,3.0,54,0.00,,,0.00,Wunderground v.1.15,2013-11-20 10:54:00,
2013-11-20 05:04:00,42.0,28.3,30.05,NE,45,3.0,7.0,58,0.00,,,0.00,Wunderground v.1.15,2013-11-20 11:04:00,
2013-11-20 05:14:00,42.1,27.9,30.06,SE,124,2.0,5.0,57,0.00,,,0.00,Wunderground v.1.15,2013-11-20 11:14:00,
2013-11-20 05:24:00,42.3,28.1,30.06,East,91,2.0,3.0,57,0.00,,,0.00,Wunderground v.1.15,2013-11-20 11:24:00,
2013-11-20 05:34:00,42.3,27.7,30.05,ESE,103,3.0,3.0,56,0.00,,,0.00,Wunderground v.1.15,2013-11-20 11:34:00,
2013-11-20 05:39:00,42.4,27.8,30.05,East,94,2.0,2.0,56,0.00,,,0.00,Wunderground v.1.15,2013-11-20 11:39:00,
2013-11-20 05:44:00,42.5,27.5,30.05,NNW,342,3.0,3.0,55,0.00,,,0.00,Wunderground v.1.15,2013-11-20 11:44:00,
2013-11-20 05:54:00,42.5,27.5,30.05,ENE,60,2.0,3.0,55,0.00,,,0.00,Wunderground v.1.15,2013-11-20 11:54:00,
2013-11-20 05:59:00,42.5,27.5,30.05,ESE,105,2.0,2.0,55,0.00,,,0.00,Wunderground v.1.15,2013-11-20 11:59:00,
2013-11-20 06:09:00,42.6,28.0,30.05,ESE,110,3.0,3.0,56,0.00,,,0.00,Wunderground v.1.15,2013-11-20 12:09:00,
2013-11-20 06:19:00,42.0,29.5,30.05,NE,50,2.0,6.0,61,0.00,,,0.00,Wunderground v.1.15,2013-11-20 12:19:00,
2013-11-20 06:24:00,41.7,30.4,30.04,ESE,115,2.0,6.0,64,0.00,,,0.01,Wunderground v.1.15,2013-11-20 12:24:00,
2013-11-20 06:34:00,41.0,30.9,30.04,NE,35,3.0,3.0,67,0.00,,,0.01,Wunderground v.1.15,2013-11-20 12:34:00,
2013-11-20 06:39:00,40.8,30.7,30.04,SE,134,3.0,3.0,67,0.00,,,0.01,Wunderground v.1.15,2013-11-20 12:39:00,
2013-11-20 06:44:00,40.8,30.3,30.05,ESE,122,3.0,3.0,66,0.00,,,0.01,Wunderground v.1.15,2013-11-20 12:44:00,
2013-11-20 06:54:00,40.9,30.8,30.04,ESE,121,1.0,2.0,67,0.00,,,0.01,Wunderground v.1.15,2013-11-20 12:54:00,
2013-11-20 07:04:00,41.3,30.4,30.05,SE,129,2.0,2.0,65,0.00,,,0.01,Wunderground v.1.15,2013-11-20 13:04:00,
2013-11-20 07:09:00,41.4,30.1,30.05,ENE,63,2.0,2.0,64,0.00,,,0.01,Wunderground v.1.15,2013-11-20 13:09:00,
2013-11-20 07:19:00,41.6,29.5,30.04,SSE,158,1.0,2.0,62,0.00,,,0.01,Wunderground v.1.15,2013-11-20 13:19:00,
2013-11-20 07:29:00,41.9,29.4,30.04,NE,49,2.0,7.0,61,0.00,,,0.01,Wunderground v.1.15,2013-11-20 13:29:00,
2013-11-20 07:39:00,42.3,29.4,30.04,NNE,24,3.0,3.0,60,0.00,,,0.01,Wunderground v.1.15,2013-11-20 13:39:00,
2013-11-20 07:49:00,42.4,29.5,30.05,East,84,2.0,2.0,60,0.00,,,0.01,Wunderground v.1.15,2013-11-20 13:49:00,
2013-11-20 07:54:00,42.4,29.5,30.04,NNE,26,2.0,2.0,60,0.00,,,0.01,Wunderground v.1.15,2013-11-20 13:54:00,
2013-11-20 07:59:00,42.4,29.5,30.05,NNW,346,2.0,3.0,60,0.00,,,0.01,Wunderground v.1.15,2013-11-20 13:59:00,
2013-11-20 08:09:00,42.4,29.9,30.04,ESE,121,4.0,5.0,61,0.00,,,0.01,Wunderground v.1.15,2013-11-20 14:09:00,
2013-11-20 08:19:00,42.3,30.2,30.05,NNE,15,1.0,1.0,62,0.00,,,0.01,Wunderground v.1.15,2013-11-20 14:19:00,
2013-11-20 08:24:00,42.3,30.6,30.05,East,101,2.0,2.0,63,0.00,,,0.01,Wunderground v.1.15,2013-11-20 14:24:00,
2013-11-20 08:29:00,42.4,30.7,30.05,ESE,110,2.0,2.0,63,0.00,,,0.01,Wunderground v.1.15,2013-11-20 14:29:00,
2013-11-20 08:39:00,42.4,31.1,30.05,SE,125,2.0,2.0,64,0.00,,,0.01,Wunderground v.1.15,2013-11-20 14:39:00,
2013-11-20 08:44:00,42.4,31.1,30.06,ENE,62,3.0,4.0,64,0.00,,,0.01,Wunderground v.1.15,2013-11-20 14:44:00,
2013-11-20 08:49:00,42.3,31.7,30.05,NNE,13,3.0,3.0,66,0.00,,,0.01,Wunderground v.1.15,2013-11-20 14:49:00,
2013-11-20 08:59:00,41.3,33.3,30.05,NNE,19,2.0,4.0,73,0.00,,,0.02,Wunderground v.1.15,2013-11-20 14:59:00,
2013-11-20 09:09:00,40.5,34.2,30.05,SE,128,1.0,1.0,78,0.04,,,0.03,Wunderground v.1.15,2013-11-20 15:09:00,
2013-11-20 09:14:00,40.2,33.9,30.04,NE,41,2.0,2.0,78,0.04,,,0.03,Wunderground v.1.15,2013-11-20 15:14:00,
2013-11-20 09:24:00,39.7,34.3,30.03,ENE,65,2.0,2.0,81,0.00,,,0.04,Wunderground v.1.15,2013-11-20 15:24:00,
2013-11-20 09:34:00,39.6,34.9,30.04,NNE,30,1.0,2.0,83,0.00,,,0.04,Wunderground v.1.15,2013-11-20 15:34:00,
2013-11-20 09:39:00,39.5,35.1,30.04,NNE,22,2.0,2.0,84,0.00,,,0.04,Wunderground v.1.15,2013-11-20 15:39:00,
2013-11-20 09:49:00,39.5,34.8,30.03,NNE,18,1.0,1.0,83,0.00,,,0.04,Wunderground v.1.15,2013-11-20 15:49:00,
2013-11-20 09:59:00,39.6,35.2,30.03,East,96,1.0,4.0,84,0.00,,,0.04,Wunderground v.1.15,2013-11-20 15:59:00,
2013-11-20 10:04:00,39.8,35.1,30.04,ENE,58,2.0,4.0,83,0.00,,,0.04,Wunderground v.1.15,2013-11-20 16:04:00,
2013-11-20 10:09:00,39.9,35.2,30.03,NE,55,2.0,2.0,83,0.00,,,0.04,Wunderground v.1.15,2013-11-20 16:09:00,
2013-11-20 10:19:00,40.4,35.3,30.03,ENE,61,1.0,1.0,82,0.00,,,0.04,Wunderground v.1.15,2013-11-20 16:19:00,
2013-11-20 10:24:00,40.6,35.5,30.03,NE,39,1.0,2.0,82,0.00,,,0.04,Wunderground v.1.15,2013-11-20 16:24:00,
2013-11-20 10:34:00,41.0,35.0,30.03,ESE,107,2.0,2.0,79,0.00,,,0.04,Wunderground v.1.15,2013-11-20 16:34:00,
2013-11-20 10:44:00,41.1,35.4,30.02,East,86,3.0,3.0,80,0.00,,,0.04,Wunderground v.1.15,2013-11-20 16:44:00,
2013-11-20 10:49:00,41.1,35.4,30.02,NE,38,3.0,3.0,80,0.00,,,0.04,Wunderground v.1.15,2013-11-20 16:49:00,
2013-11-20 10:59:00,41.3,35.3,30.01,NNE,14,2.0,3.0,79,0.00,,,0.05,Wunderground v.1.15,2013-11-20 16:59:00,
2013-11-20 11:04:00,41.3,35.6,30.01,SE,128,2.0,4.0,80,0.00,,,0.05,Wunderground v.1.15,2013-11-20 17:04:00,
2013-11-20 11:14:00,41.6,35.2,30.01,SE,125,1.0,2.0,78,0.00,,,0.05,Wunderground v.1.15,2013-11-20 17:14:00,
2013-11-20 11:24:00,41.8,35.4,30.00,NE,49,2.0,3.0,78,0.00,,,0.05,Wunderground v.1.15,2013-11-20 17:24:00,
2013-11-20 11:29:00,41.9,35.9,29.99,NNE,21,2.0,3.0,79,0.00,,,0.05,Wunderground v.1.15,2013-11-20 17:29:00,
2013-11-20 11:34:00,42.2,35.8,29.99,ENE,72,2.0,3.0,78,0.00,,,0.05,Wunderground v.1.15,2013-11-20 17:34:00,
2013-11-20 11:39:00,42.4,35.7,29.99,SSE,150,2.0,2.0,77,0.00,,,0.05,Wunderground v.1.15,2013-11-20 17:39:00,
2013-11-20 11:44:00,42.7,35.7,29.99,NNE,26,2.0,2.0,76,0.00,,,0.05,Wunderground v.1.15,2013-11-20 17:44:00,
2013-11-20 11:49:00,42.9,35.5,29.98,ENE,77,2.0,2.0,75,0.00,,,0.05,Wunderground v.1.15,2013-11-20 17:49:00,
2013-11-20 11:54:00,43.3,35.2,29.98,NNE,20,2.0,3.0,73,0.00,,,0.05,Wunderground v.1.15,2013-11-20 17:54:00,
2013-11-20 11:59:00,43.7,34.9,29.98,NNW,346,1.0,6.0,71,0.00,,,0.05,Wunderground v.1.15,2013-11-20 17:59:00,
2013-11-20 12:09:00,44.6,35.1,29.98,SE,145,1.0,2.0,69,0.00,,,0.05,Wunderground v.1.15,2013-11-20 18:09:00,
2013-11-20 12:14:00,44.9,34.6,29.98,NNE,32,1.0,2.0,67,0.00,,,0.05,Wunderground v.1.15,2013-11-20 18:14:00,
2013-11-20 12:19:00,45.2,34.5,29.98,East,94,1.0,1.0,66,0.00,,,0.05,Wunderground v.1.15,2013-11-20 18:19:00,
2013-11-20 12:24:00,45.7,34.2,29.97,East,88,1.0,3.0,64,0.00,,,0.05,Wunderground v.1.15,2013-11-20 18:24:00,
2013-11-20 12:29:00,46.1,34.2,29.97,East,81,2.0,2.0,63,0.00,,,0.05,Wunderground v.1.15,2013-11-20 18:29:00,
2013-11-20 12:39:00,47.0,33.8,29.97,NE,47,2.0,2.0,60,0.00,,,0.05,Wunderground v.1.15,2013-11-20 18:39:00,
2013-11-20 12:44:00,47.5,34.3,29.97,NE,40,2.0,5.0,60,0.00,,,0.05,Wunderground v.1.15,2013-11-20 18:44:00,
2013-11-20 12:49:00,47.9,34.7,29.96,SE,128,3.0,4.0,60,0.00,,,0.05,Wunderground v.1.15,2013-11-20 18:49:00,
2013-11-20 12:54:00,48.6,34.0,29.96,WSW,239,3.0,4.0,57,0.00,,,0.05,Wunderground v.1.15,2013-11-20 18:54:00,
2013-11-20 12:59:00,49.2,34.2,29.96,ESE,108,2.0,2.0,56,0.00,,,0.05,Wunderground v.1.15,2013-11-20 18:59:00,
2013-11-20 13:09:00,50.6,34.6,29.96,SE,132,2.0,2.0,54,0.00,,,0.05,Wunderground v.1.15,2013-11-20 19:09:00,
2013-11-20 13:14:00,52.0,34.9,29.96,North,8,2.0,3.0,52,0.00,,,0.05,Wunderground v.1.15,2013-11-20 19:14:00,
2013-11-20 13:19:00,52.6,34.0,29.96,NNW,342,3.0,6.0,49,0.00,,,0.05,Wunderground v.1.15,2013-11-20 19:19:00,
2013-11-20 13:24:00,52.5,33.4,29.95,East,96,4.0,6.0,48,0.00,,,0.05,Wunderground v.1.15,2013-11-20 19:24:00,
2013-11-20 13:34:00,52.8,34.2,29.94,NNE,14,3.0,4.0,49,0.00,,,0.05,Wunderground v.1.15,2013-11-20 19:34:00,
2013-11-20 13:39:00,52.8,34.2,29.94,East,79,2.0,4.0,49,0.00,,,0.05,Wunderground v.1.15,2013-11-20 19:39:00,
2013-11-20 13:44:00,52.8,33.6,29.93,East,101,3.0,4.0,48,0.00,,,0.05,Wunderground v.1.15,2013-11-20 19:44:00,
2013-11-20 13:49:00,52.6,33.5,29.93,SE,136,3.0,3.0,48,0.00,,,0.05,Wunderground v.1.15,2013-11-20 19:49:00,
2013-11-20 13:54:00,53.0,33.8,29.93,SE,125,2.0,3.0,48,0.00,,,0.05,Wunderground v.1.15,2013-11-20 19:54:00,
2013-11-20 13:59:00,52.5,33.4,29.93,SE,129,3.0,4.0,48,0.00,,,0.05,Wunderground v.1.15,2013-11-20 19:59:00,
2013-11-20 14:04:00,52.2,33.1,29.93,SE,136,4.0,4.0,48,0.00,,,0.05,Wunderground v.1.15,2013-11-20 20:04:00,
2013-11-20 14:14:00,52.8,34.7,29.93,East,98,2.0,3.0,50,0.00,,,0.05,Wunderground v.1.15,2013-11-20 20:14:00,
2013-11-20 14:24:00,54.2,34.4,29.93,NNE,19,1.0,3.0,47,0.00,,,0.05,Wunderground v.1.15,2013-11-20 20:24:00,
2013-11-20 14:34:00,54.1,32.6,29.92,North,10,2.0,3.0,44,0.00,,,0.05,Wunderground v.1.15,2013-11-20 20:34:00,
2013-11-20 14:44:00,54.2,33.3,29.92,East,79,1.0,3.0,45,0.00,,,0.05,Wunderground v.1.15,2013-11-20 20:44:00,
2013-11-20 14:49:00,54.2,32.7,29.92,ENE,65,2.0,2.0,44,0.00,,,0.05,Wunderground v.1.15,2013-11-20 20:49:00,
2013-11-20 14:54:00,54.3,32.8,29.92,SE,141,2.0,2.0,44,0.00,,,0.05,Wunderground v.1.15,2013-11-20 20:54:00,
2013-11-20 14:59:00,54.3,32.3,29.92,ESE,103,2.0,4.0,43,0.00,,,0.05,Wunderground v.1.15,2013-11-20 20:59:00,
2013-11-20 15:04:00,54.5,30.6,29.92,ESE,110,3.0,4.0,40,0.00,,,0.05,Wunderground v.1.15,2013-11-20 21:04:00,
2013-11-20 15:09:00,54.6,30.7,29.92,NNE,29,3.0,3.0,40,0.00,,,0.05,Wunderground v.1.15,2013-11-20 21:09:00,
2013-11-20 15:14:00,54.6,30.7,29.92,East,96,2.0,3.0,40,0.00,,,0.05,Wunderground v.1.15,2013-11-20 21:14:00,
2013-11-20 15:19:00,54.6,30.7,29.92,ENE,66,2.0,2.0,40,0.00,,,0.05,Wunderground v.1.15,2013-11-20 21:19:00,
2013-11-20 15:29:00,54.4,29.9,29.92,ESE,104,2.0,2.0,39,0.00,,,0.05,Wunderground v.1.15,2013-11-20 21:29:00,
2013-11-20 15:34:00,54.3,29.8,29.92,East,86,2.0,2.0,39,0.00,,,0.05,Wunderground v.1.15,2013-11-20 21:34:00,
2013-11-20 15:44:00,54.3,29.8,29.92,NNW,347,2.0,4.0,39,0.00,,,0.05,Wunderground v.1.15,2013-11-20 21:44:00,
2013-11-20 15:49:00,54.3,29.8,29.92,East,84,2.0,3.0,39,0.00,,,0.05,Wunderground v.1.15,2013-11-20 21:49:00,
2013-11-20 15:54:00,54.3,30.5,29.92,North,5,2.0,3.0,40,0.00,,,0.05,Wunderground v.1.15,2013-11-20 21:54:00,
2013-11-20 16:04:00,54.2,30.4,29.92,ESE,105,2.0,4.0,40,0.00,,,0.05,Wunderground v.1.15,2013-11-20 22:04:00,
2013-11-20 16:14:00,54.1,30.3,29.92,ESE,105,1.0,6.0,40,0.00,,,0.05,Wunderground v.1.15,2013-11-20 22:14:00,
2013-11-20 16:19:00,54.1,29.7,29.92,East,95,2.0,2.0,39,0.00,,,0.05,Wunderground v.1.15,2013-11-20 22:19:00,
2013-11-20 16:24:00,54.0,29.6,29.93,ENE,67,2.0,2.0,39,0.00,,,0.05,Wunderground v.1.15,2013-11-20 22:24:00,
2013-11-20 16:34:00,54.0,29.6,29.93,ESE,110,2.0,2.0,39,0.00,,,0.05,Wunderground v.1.15,2013-11-20 22:34:00,
2013-11-20 16:39:00,53.9,30.1,29.93,NNE,29,2.0,2.0,40,0.00,,,0.05,Wunderground v.1.15,2013-11-20 22:39:00,
2013-11-20 16:49:00,53.7,30.5,29.93,ENE,71,1.0,1.0,41,0.00,,,0.05,Wunderground v.1.15,2013-11-20 22:49:00,
2013-11-20 16:54:00,53.6,30.4,29.93,East,93,1.0,2.0,41,0.00,,,0.05,Wunderground v.1.15,2013-11-20 22:54:00,
2013-11-20 16:59:00,53.6,30.4,29.93,ENE,65,1.0,1.0,41,0.00,,,0.05,Wunderground v.1.15,2013-11-20 22:59:00,
2013-11-20 17:04:00,53.6,30.4,29.94,East,101,2.0,2.0,41,0.00,,,0.05,Wunderground v.1.15,2013-11-20 23:04:00,
2013-11-20 17:09:00,53.6,30.4,29.94,ESE,114,1.0,1.0,41,0.00,,,0.05,Wunderground v.1.15,2013-11-20 23:09:00,
2013-11-20 17:19:00,53.6,31.0,29.94,East,94,1.0,2.0,42,0.00,,,0.05,Wunderground v.1.15,2013-11-20 23:19:00,
2013-11-20 17:24:00,53.6,31.0,29.94,East,98,1.0,2.0,42,0.00,,,0.05,Wunderground v.1.15,2013-11-20 23:24:00,
2013-11-20 17:29:00,53.6,31.0,29.94,ENE,68,2.0,2.0,42,0.00,,,0.05,Wunderground v.1.15,2013-11-20 23:29:00,
2013-11-20 17:39:00,53.7,30.5,29.94,East,96,1.0,2.0,41,0.00,,,0.05,Wunderground v.1.15,2013-11-20 23:39:00,
2013-11-20 17:44:00,53.8,30.6,29.94,ESE,107,1.0,2.0,41,0.00,,,0.05,Wunderground v.1.15,2013-11-20 23:44:00,
2013-11-20 17:49:00,53.9,30.7,29.94,ENE,63,1.0,2.0,41,0.00,,,0.05,Wunderground v.1.15,2013-11-20 23:49:00,
2013-11-20 17:54:00,53.9,30.7,29.94,NNE,32,1.0,2.0,41,0.00,,,0.05,Wunderground v.1.15,2013-11-20 23:54:00,
2013-11-20 17:59:00,53.9,30.7,29.94,ESE,113,1.0,1.0,41,0.00,,,0.05,Wunderground v.1.15,2013-11-20 23:59:00,
2013-11-20 18:04:00,54.0,30.8,29.94,NNE,29,1.0,2.0,41,0.00,,,0.05,Wunderground v.1.15,2013-11-21 00:04:00,
2013-11-20 18:09:00,54.1,30.9,29.95,SE,132,1.0,2.0,41,0.00,,,0.05,Wunderground v.1.15,2013-11-21 00:09:00,
2013-11-20 18:19:00,54.1,30.9,29.95,East,79,1.0,1.0,41,0.00,,,0.05,Wunderground v.1.15,2013-11-21 00:19:00,
2013-11-20 18:24:00,54.1,30.9,29.95,NNE,19,0.0,2.0,41,0.00,,,0.05,Wunderground v.1.15,2013-11-21 00:24:00,
2013-11-20 18:29:00,54.1,30.9,29.95,NE,47,1.0,2.0,41,0.00,,,0.05,Wunderground v.1.15,2013-11-21 00:29:00,
2013-11-20 18:34:00,54.1,30.9,29.94,ESE,121,1.0,4.0,41,0.00,,,0.05,Wunderground v.1.15,2013-11-21 00:34:00,
2013-11-20 18:39:00,54.3,31.1,29.95,SE,134,1.0,2.0,41,0.00,,,0.05,Wunderground v.1.15,2013-11-21 00:39:00,
2013-11-20 18:44:00,54.3,31.1,29.95,SE,136,1.0,2.0,41,0.00,,,0.05,Wunderground v.1.15,2013-11-21 00:44:00,
2013-11-20 18:49:00,54.3,31.1,29.95,ESE,114,1.0,3.0,41,0.00,,,0.05,Wunderground v.1.15,2013-11-21 00:49:00,
2013-11-20 18:54:00,54.4,30.6,29.94,East,101,2.0,3.0,40,0.00,,,0.05,Wunderground v.1.15,2013-11-21 00:54:00,
2013-11-20 18:59:00,54.6,30.7,29.95,ESE,103,2.0,2.0,40,0.00,,,0.05,Wunderground v.1.15,2013-11-21 00:59:00,
2013-11-20 19:04:00,54.6,30.7,29.95,SSE,153,2.0,4.0,40,0.00,,,0.05,Wunderground v.1.15,2013-11-21 01:04:00,
2013-11-20 19:09:00,54.8,30.3,29.95,ESE,109,3.0,3.0,39,0.00,,,0.05,Wunderground v.1.15,2013-11-21 01:09:00,
2013-11-20 19:14:00,54.9,30.4,29.95,ENE,74,3.0,3.0,39,0.00,,,0.05,Wunderground v.1.15,2013-11-21 01:14:00,
2013-11-20 19:24:00,54.9,30.4,29.95,SE,135,2.0,3.0,39,0.00,,,0.05,Wunderground v.1.15,2013-11-21 01:24:00,
2013-11-20 19:29:00,54.9,30.4,29.95,SE,125,2.0,2.0,39,0.00,,,0.05,Wunderground v.1.15,2013-11-21 01:29:00,
2013-11-20 19:34:00,54.8,30.3,29.95,WNW,287,1.0,2.0,39,0.00,,,0.05,Wunderground v.1.15,2013-11-21 01:34:00,
2013-11-20 19:39:00,54.8,30.3,29.96,ESE,115,1.0,1.0,39,0.00,,,0.05,Wunderground v.1.15,2013-11-21 01:39:00,
2013-11-20 19:44:00,54.8,30.3,29.96,ESE,108,1.0,2.0,39,0.00,,,0.05,Wunderground v.1.15,2013-11-21 01:44:00,
2013-11-20 19:49:00,54.8,30.3,29.96,ESE,103,1.0,2.0,39,0.00,,,0.05,Wunderground v.1.15,2013-11-21 01:49:00,
2013-11-20 19:54:00,54.8,30.9,29.96,SSE,165,1.0,2.0,40,0.00,,,0.05,Wunderground v.1.15,2013-11-21 01:54:00,
2013-11-20 19:59:00,54.7,30.8,29.96,ESE,111,1.0,4.0,40,0.00,,,0.05,Wunderground v.1.15,2013-11-21 01:59:00,
2013-11-20 20:04:00,54.6,30.7,29.96,ENE,77,1.0,4.0,40,0.00,,,0.05,Wunderground v.1.15,2013-11-21 02:04:00,
2013-11-20 20:09:00,54.7,30.8,29.97,NNE,19,1.0,1.0,40,0.00,,,0.05,Wunderground v.1.15,2013-11-21 02:09:00,
2013-11-20 20:14:00,54.6,30.1,29.97,East,101,0.0,2.0,39,0.00,,,0.05,Wunderground v.1.15,2013-11-21 02:14:00,
2013-11-20 20:24:00,54.6,30.1,29.97,NE,51,1.0,2.0,39,0.00,,,0.05,Wunderground v.1.15,2013-11-21 02:24:00,
2013-11-20 20:29:00,54.6,30.7,29.97,East,79,1.0,1.0,40,0.00,,,0.05,Wunderground v.1.15,2013-11-21 02:29:00,
2013-11-20 20:34:00,54.6,30.7,29.98,SE,135,1.0,3.0,40,0.00,,,0.05,Wunderground v.1.15,2013-11-21 02:34:00,
2013-11-20 20:39:00,54.6,30.1,29.98,East,89,1.0,2.0,39,0.00,,,0.05,Wunderground v.1.15,2013-11-21 02:39:00,
2013-11-20 20:44:00,54.7,30.8,29.98,NNE,19,2.0,2.0,40,0.00,,,0.05,Wunderground v.1.15,2013-11-21 02:44:00,
2013-11-20 20:49:00,54.7,30.8,29.98,ESE,110,2.0,2.0,40,0.00,,,0.05,Wunderground v.1.15,2013-11-21 02:49:00,
2013-11-20 20:54:00,54.7,30.8,29.98,East,84,2.0,2.0,40,0.00,,,0.05,Wunderground v.1.15,2013-11-21 02:54:00,
2013-11-20 20:59:00,54.7,30.8,29.98,NE,54,2.0,4.0,40,0.00,,,0.05,Wunderground v.1.15,2013-11-21 02:59:00,
2013-11-20 21:04:00,54.7,30.8,29.98,East,79,2.0,4.0,40,0.00,,,0.05,Wunderground v.1.15,2013-11-21 03:04:00,
2013-11-20 21:09:00,54.7,30.8,29.99,East,89,2.0,2.0,40,0.00,,,0.05,Wunderground v.1.15,2013-11-21 03:09:00,
2013-11-20 21:14:00,54.6,33.1,29.99,East,92,2.0,2.0,44,0.00,,,0.05,Wunderground v.1.15,2013-11-21 03:14:00,
2013-11-20 21:19:00,54.3,32.3,29.99,NE,44,2.0,2.0,43,0.00,,,0.05,Wunderground v.1.15,2013-11-21 03:19:00,
2013-11-20 21:29:00,54.0,32.0,29.98,ESE,123,2.0,2.0,43,0.00,,,0.05,Wunderground v.1.15,2013-11-21 03:29:00,
2013-11-20 21:34:00,54.0,32.0,29.99,ESE,118,2.0,2.0,43,0.00,,,0.05,Wunderground v.1.15,2013-11-21 03:34:00,
2013-11-20 21:39:00,54.0,32.0,29.99,East,86,2.0,2.0,43,0.00,,,0.05,Wunderground v.1.15,2013-11-21 03:39:00,
2013-11-20 21:44:00,54.1,31.5,29.99,ENE,70,3.0,3.0,42,0.00,,,0.05,Wunderground v.1.15,2013-11-21 03:44:00,
2013-11-20 21:49:00,54.1,31.5,29.99,East,101,3.0,3.0,42,0.00,,,0.05,Wunderground v.1.15,2013-11-21 03:49:00,
2013-11-20 21:54:00,54.1,31.5,29.99,East,86,2.0,5.0,42,0.00,,,0.05,Wunderground v.1.15,2013-11-21 03:54:00,
2013-11-20 21:59:00,54.2,31.6,29.99,SE,124,2.0,2.0,42,0.00,,,0.05,Wunderground v.1.15,2013-11-21 03:59:00,
2013-11-20 22:04:00,54.2,31.6,29.98,ESE,113,2.0,3.0,42,0.00,,,0.05,Wunderground v.1.15,2013-11-21 04:04:00,
2013-11-20 22:09:00,54.3,32.3,29.98,NNW,332,2.0,2.0,43,0.00,,,0.05,Wunderground v.1.15,2013-11-21 04:09:00,
2013-11-20 22:14:00,54.2,32.2,29.98,East,101,2.0,4.0,43,0.00,,,0.05,Wunderground v.1.15,2013-11-21 04:14:00,
2013-11-20 22:19:00,54.3,32.3,29.99,East,101,2.0,3.0,43,0.00,,,0.05,Wunderground v.1.15,2013-11-21 04:19:00,
2013-11-20 22:29:00,54.4,32.3,29.99,East,80,2.0,2.0,43,0.00,,,0.05,Wunderground v.1.15,2013-11-21 04:29:00,
2013-11-20 22:34:00,54.3,32.3,29.99,East,97,2.0,2.0,43,0.00,,,0.05,Wunderground v.1.15,2013-11-21 04:34:00,
2013-11-20 22:39:00,54.3,32.3,29.99,North,3,2.0,2.0,43,0.00,,,0.05,Wunderground v.1.15,2013-11-21 04:39:00,
2013-11-20 22:44:00,54.2,32.2,30.00,SE,129,1.0,2.0,43,0.00,,,0.05,Wunderground v.1.15,2013-11-21 04:44:00,
2013-11-20 22:49:00,54.2,32.7,29.99,East,86,1.0,1.0,44,0.00,,,0.05,Wunderground v.1.15,2013-11-21 04:49:00,
2013-11-20 22:54:00,54.2,32.7,29.99,SSE,165,1.0,2.0,44,0.00,,,0.05,Wunderground v.1.15,2013-11-21 04:54:00,
2013-11-20 22:59:00,54.1,32.6,29.99,ENE,75,1.0,2.0,44,0.00,,,0.05,Wunderground v.1.15,2013-11-21 04:59:00,
2013-11-20 23:04:00,54.1,32.6,29.99,NNW,342,2.0,2.0,44,0.00,,,0.05,Wunderground v.1.15,2013-11-21 05:04:00,
2013-11-20 23:09:00,54.1,32.6,29.99,NE,41,3.0,3.0,44,0.00,,,0.05,Wunderground v.1.15,2013-11-21 05:09:00,
2013-11-20 23:14:00,54.1,33.2,29.98,East,101,3.0,3.0,45,0.00,,,0.05,Wunderground v.1.15,2013-11-21 05:14:00,
2013-11-20 23:19:00,54.0,33.1,29.98,SE,138,2.0,2.0,45,0.00,,,0.05,Wunderground v.1.15,2013-11-21 05:19:00,
2013-11-20 23:24:00,54.0,33.1,29.98,ESE,110,1.0,2.0,45,0.00,,,0.05,Wunderground v.1.15,2013-11-21 05:24:00,
2013-11-20 23:34:00,53.9,33.0,29.97,North,359,2.0,2.0,45,0.00,,,0.05,Wunderground v.1.15,2013-11-21 05:34:00,
2013-11-20 23:39:00,53.8,33.5,29.97,ENE,57,3.0,3.0,46,0.00,,,0.05,Wunderground v.1.15,2013-11-21 05:39:00,
2013-11-20 23:44:00,53.8,33.5,29.98,SE,125,2.0,3.0,46,0.00,,,0.05,Wunderground v.1.15,2013-11-21 05:44:00,
2013-11-20 23:49:00,53.8,33.5,29.98,SE,131,2.0,3.0,46,0.00,,,0.05,Wunderground v.1.15,2013-11-21 05:49:00,
2013-11-20 23:54:00,53.9,34.1,29.99,ESE,113,2.0,3.0,47,0.00,,,0.05,Wunderground v.1.15,2013-11-21 05:54:00,
2013-11-20 23:59:00,53.8,34.0,30.00,South,181,2.0,2.0,47,0.00,,,0.05,Wunderground v.1.15,2013-11-21 05:59:00,